createdAt,value
2024-03-02T00:00:54.826Z,996.35
2024-03-02T00:01:54.790Z,996.42
2024-03-02T00:02:54.748Z,996.41
2024-03-02T00:03:54.850Z,996.41
2024-03-02T00:04:54.722Z,996.38
2024-03-02T00:05:54.712Z,996.41
2024-03-02T00:06:54.834Z,996.35
2024-03-02T00:07:54.725Z,996.38
2024-03-02T00:08:54.668Z,996.35
2024-03-02T00:09:54.788Z,996.31
2024-03-02T00:10:54.664Z,996.28
2024-03-02T00:11:54.648Z,996.34
2024-03-02T00:12:54.756Z,996.34
2024-03-02T00:13:54.668Z,996.41
2024-03-02T00:14:54.623Z,996.37
2024-03-02T00:15:54.769Z,996.43
2024-03-02T00:16:54.591Z,996.38
2024-03-02T00:17:54.631Z,996.37
2024-03-02T00:18:54.593Z,996.34
2024-03-02T00:19:54.590Z,996.32
2024-03-02T00:20:54.557Z,996.35
2024-03-02T00:21:54.586Z,996.29
2024-03-02T00:22:54.516Z,996.39
2024-03-02T00:23:54.513Z,996.37
2024-03-02T00:24:54.526Z,996.44
2024-03-02T00:25:54.546Z,996.40
2024-03-02T00:26:54.479Z,996.42
2024-03-02T00:27:54.526Z,996.45
2024-03-02T00:28:54.455Z,996.40
2024-03-02T00:29:55.358Z,996.43
2024-03-02T00:30:54.521Z,996.41
2024-03-02T00:31:54.499Z,996.41
2024-03-02T00:32:54.525Z,996.39
2024-03-02T00:33:54.465Z,996.40
2024-03-02T00:34:54.440Z,996.39
2024-03-02T00:35:54.404Z,996.41
2024-03-02T00:36:54.441Z,996.37
2024-03-02T00:37:54.423Z,996.41
2024-03-02T00:38:54.363Z,996.38
2024-03-02T00:39:54.414Z,996.36
2024-03-02T00:40:54.330Z,996.41
2024-03-02T00:41:54.312Z,996.37
2024-03-02T00:42:54.377Z,996.35
2024-03-02T00:43:54.339Z,996.35
2024-03-02T00:44:54.309Z,996.36
2024-03-02T00:45:54.294Z,996.33
2024-03-02T00:46:54.267Z,996.31
2024-03-02T00:47:54.285Z,996.27
2024-03-02T00:48:54.272Z,996.23
2024-03-02T00:49:54.257Z,996.26
2024-03-02T00:50:54.239Z,996.25
2024-03-02T00:51:54.372Z,996.24
2024-03-02T00:52:54.203Z,996.18
2024-03-02T00:53:54.185Z,996.20
2024-03-02T00:54:54.262Z,996.22
2024-03-02T00:55:54.249Z,996.25
2024-03-02T00:56:54.179Z,996.24
2024-03-02T00:57:54.216Z,996.29
2024-03-02T00:58:54.180Z,996.26
2024-03-02T00:59:54.147Z,996.24
2024-03-02T01:00:54.193Z,996.26
2024-03-02T01:01:54.207Z,996.27
2024-03-02T01:02:54.088Z,996.28
2024-03-02T01:03:54.260Z,996.26
2024-03-02T01:04:54.062Z,996.22
2024-03-02T01:05:54.093Z,996.26
2024-03-02T01:06:54.075Z,996.21
2024-03-02T01:07:54.114Z,996.21
2024-03-02T01:08:54.167Z,996.20
2024-03-02T01:09:54.055Z,996.17
2024-03-02T01:10:54.054Z,996.17
2024-03-02T01:11:54.004Z,996.13
2024-03-02T01:12:54.044Z,996.17
2024-03-02T01:13:54.195Z,996.17
2024-03-02T01:14:53.963Z,996.13
2024-03-02T01:15:54.000Z,996.14
2024-03-02T01:16:53.954Z,996.16
2024-03-02T01:17:55.944Z,996.15
2024-03-02T01:18:54.044Z,996.13
2024-03-02T01:19:53.928Z,996.14
2024-03-02T01:20:53.901Z,996.13
2024-03-02T01:21:53.962Z,996.13
2024-03-02T01:22:53.870Z,996.09
2024-03-02T01:23:53.871Z,996.10
2024-03-02T01:24:53.928Z,996.12
2024-03-02T01:25:53.877Z,996.06
2024-03-02T01:26:53.840Z,996.12
2024-03-02T01:27:53.846Z,996.11
2024-03-02T01:28:53.980Z,996.10
2024-03-02T01:29:53.857Z,996.09
2024-03-02T01:30:53.907Z,996.07
2024-03-02T01:31:53.818Z,996.06
2024-03-02T01:32:53.805Z,996.07
2024-03-02T01:33:53.800Z,996.08
2024-03-02T01:34:53.757Z,996.11
2024-03-02T01:35:53.740Z,996.04
2024-03-02T01:36:53.884Z,995.99
2024-03-02T01:37:53.757Z,995.99
2024-03-02T01:38:53.705Z,995.97
2024-03-02T01:39:53.743Z,995.93
2024-03-02T01:40:53.688Z,995.95
2024-03-02T01:41:53.668Z,995.96
2024-03-02T01:42:53.712Z,995.92
2024-03-02T01:43:53.750Z,995.94
2024-03-02T01:44:53.672Z,995.95
2024-03-02T01:45:53.708Z,995.87
2024-03-02T01:46:53.637Z,995.87
2024-03-02T01:47:53.666Z,995.92
2024-03-02T01:48:53.647Z,995.89
2024-03-02T01:49:53.711Z,995.83
2024-03-02T01:50:53.578Z,995.89
2024-03-02T01:51:53.601Z,995.84
2024-03-02T01:52:53.556Z,995.83
2024-03-02T01:53:53.650Z,995.79
2024-03-02T01:54:53.613Z,995.81
2024-03-02T01:55:53.537Z,995.77
2024-03-02T01:56:53.508Z,995.78
2024-03-02T01:57:53.595Z,995.77
2024-03-02T01:58:53.492Z,995.77
2024-03-02T01:59:53.473Z,995.74
2024-03-02T02:00:53.523Z,995.73
2024-03-02T02:01:53.485Z,995.76
2024-03-02T02:02:53.440Z,995.71
2024-03-02T02:03:53.494Z,995.68
2024-03-02T02:04:53.426Z,995.73
2024-03-02T02:05:53.428Z,995.70
2024-03-02T02:06:53.464Z,995.71
2024-03-02T02:07:53.435Z,995.73
2024-03-02T02:08:53.389Z,995.76
2024-03-02T02:09:53.422Z,995.75
2024-03-02T02:10:53.394Z,995.71
2024-03-02T02:11:53.347Z,995.72
2024-03-02T02:12:53.420Z,995.71
2024-03-02T02:13:53.369Z,995.72
2024-03-02T02:14:53.304Z,995.74
2024-03-02T02:15:53.324Z,995.72
2024-03-02T02:16:53.292Z,995.66
2024-03-02T02:17:53.317Z,995.64
2024-03-02T02:18:53.350Z,995.66
2024-03-02T02:19:53.291Z,995.69
2024-03-02T02:20:53.240Z,995.68
2024-03-02T02:21:53.286Z,995.64
2024-03-02T02:22:53.221Z,995.69
2024-03-02T02:23:53.223Z,995.69
2024-03-02T02:24:53.244Z,995.69
2024-03-02T02:25:53.225Z,995.69
2024-03-02T02:26:53.176Z,995.72
2024-03-02T02:27:53.315Z,995.74
2024-03-02T02:28:53.159Z,995.66
2024-03-02T02:29:53.141Z,995.65
2024-03-02T02:30:53.155Z,995.59
2024-03-02T02:31:53.260Z,995.61
2024-03-02T02:32:53.169Z,995.64
2024-03-02T02:33:53.111Z,995.57
2024-03-02T02:34:53.085Z,995.55
2024-03-02T02:35:53.079Z,995.53
2024-03-02T02:36:53.148Z,995.53
2024-03-02T02:37:53.095Z,995.50
2024-03-02T02:38:53.063Z,995.58
2024-03-02T02:39:53.041Z,995.53
2024-03-02T02:40:53.052Z,995.55
2024-03-02T02:41:53.020Z,995.55
2024-03-02T02:42:53.289Z,995.47
2024-03-02T02:43:53.057Z,995.51
2024-03-02T02:44:52.976Z,995.53
2024-03-02T02:45:53.024Z,995.53
2024-03-02T02:46:53.031Z,995.49
2024-03-02T02:47:52.968Z,995.47
2024-03-02T02:48:52.996Z,995.41
2024-03-02T02:49:52.962Z,995.46
2024-03-02T02:50:52.919Z,995.46
2024-03-02T02:51:52.989Z,995.42
2024-03-02T02:52:52.909Z,995.41
2024-03-02T02:53:52.881Z,995.41
2024-03-02T02:54:52.964Z,995.42
2024-03-02T02:55:52.896Z,995.41
2024-03-02T02:56:52.865Z,995.41
2024-03-02T02:57:52.906Z,995.42
2024-03-02T02:58:52.837Z,995.41
2024-03-02T02:59:52.821Z,995.37
2024-03-02T03:00:52.921Z,995.33
2024-03-02T03:01:52.872Z,995.35
2024-03-02T03:02:52.796Z,995.33
2024-03-02T03:03:52.824Z,995.36
2024-03-02T03:04:52.889Z,995.38
2024-03-02T03:05:52.765Z,995.39
2024-03-02T03:06:52.916Z,995.36
2024-03-02T03:07:52.764Z,995.39
2024-03-02T03:08:52.734Z,995.35
2024-03-02T03:09:52.756Z,995.37
2024-03-02T03:10:52.732Z,995.32
2024-03-02T03:11:52.685Z,995.32
2024-03-02T03:12:52.727Z,995.30
2024-03-02T03:13:52.710Z,995.32
2024-03-02T03:14:52.658Z,995.29
2024-03-02T03:15:52.665Z,995.33
2024-03-02T03:16:52.639Z,995.35
2024-03-02T03:17:52.675Z,995.33
2024-03-02T03:18:52.712Z,995.35
2024-03-02T03:19:52.643Z,995.33
2024-03-02T03:20:52.597Z,995.32
2024-03-02T03:21:52.768Z,995.31
2024-03-02T03:22:52.571Z,995.30
2024-03-02T03:23:52.561Z,995.29
2024-03-02T03:24:52.824Z,995.29
2024-03-02T03:25:52.583Z,995.37
2024-03-02T03:26:52.569Z,995.33
2024-03-02T03:27:52.592Z,995.36
2024-03-02T03:28:52.511Z,995.37
2024-03-02T03:29:52.487Z,995.39
2024-03-02T03:30:52.569Z,995.42
2024-03-02T03:31:52.521Z,995.47
2024-03-02T03:32:52.454Z,995.49
2024-03-02T03:33:52.525Z,995.50
2024-03-02T03:34:52.496Z,995.54
2024-03-02T03:35:52.445Z,995.46
2024-03-02T03:36:52.598Z,995.47
2024-03-02T03:37:52.437Z,995.50
2024-03-02T03:38:52.400Z,995.51
2024-03-02T03:39:52.442Z,995.46
2024-03-02T03:40:52.373Z,995.51
2024-03-02T03:41:52.357Z,995.53
2024-03-02T03:42:52.422Z,995.50
2024-03-02T03:43:52.372Z,995.45
2024-03-02T03:44:52.330Z,995.42
2024-03-02T03:45:52.344Z,995.47
2024-03-02T03:46:52.330Z,995.49
2024-03-02T03:47:52.342Z,995.43
2024-03-02T03:48:52.373Z,995.53
2024-03-02T03:49:52.307Z,995.48
2024-03-02T03:50:52.269Z,995.52
2024-03-02T03:51:52.306Z,995.49
2024-03-02T03:52:52.262Z,995.56
2024-03-02T03:53:52.229Z,995.55
2024-03-02T03:54:52.287Z,995.57
2024-03-02T03:55:52.254Z,995.52
2024-03-02T03:56:52.230Z,995.52
2024-03-02T03:57:52.219Z,995.51
2024-03-02T03:58:52.183Z,995.50
2024-03-02T03:59:52.158Z,995.53
2024-03-02T04:00:52.274Z,995.55
2024-03-02T04:01:52.264Z,995.48
2024-03-02T04:02:52.143Z,995.47
2024-03-02T04:03:52.239Z,995.50
2024-03-02T04:04:52.107Z,995.51
2024-03-02T04:05:52.095Z,995.51
2024-03-02T04:06:52.172Z,995.49
2024-03-02T04:07:52.098Z,995.51
2024-03-02T04:08:52.069Z,995.52
2024-03-02T04:09:52.133Z,995.49
2024-03-02T04:10:52.084Z,995.57
2024-03-02T04:11:52.032Z,995.63
2024-03-02T04:12:52.102Z,995.61
2024-03-02T04:13:52.046Z,995.62
2024-03-02T04:14:52.001Z,995.63
2024-03-02T04:15:52.022Z,995.65
2024-03-02T04:16:51.989Z,995.67
2024-03-02T04:17:52.004Z,995.63
2024-03-02T04:18:51.982Z,995.62
2024-03-02T04:19:51.974Z,995.61
2024-03-02T04:20:54.304Z,995.59
2024-03-02T04:21:51.981Z,995.59
2024-03-02T04:22:51.922Z,995.62
2024-03-02T04:23:51.913Z,995.63
2024-03-02T04:24:51.937Z,995.61
2024-03-02T04:25:51.930Z,995.64
2024-03-02T04:26:51.874Z,995.64
2024-03-02T04:27:51.983Z,995.64
2024-03-02T04:28:51.852Z,995.68
2024-03-02T04:29:51.841Z,995.64
2024-03-02T04:30:51.889Z,995.68
2024-03-02T04:31:51.911Z,995.72
2024-03-02T04:32:51.844Z,995.70
2024-03-02T04:33:51.852Z,995.72
2024-03-02T04:34:51.795Z,995.68
2024-03-02T04:35:51.775Z,995.67
2024-03-02T04:36:51.853Z,995.72
2024-03-02T04:37:51.773Z,995.75
2024-03-02T04:38:51.759Z,995.69
2024-03-02T04:39:51.766Z,995.71
2024-03-02T04:40:51.728Z,995.70
2024-03-02T04:41:51.708Z,995.67
2024-03-02T04:42:51.746Z,995.71
2024-03-02T04:43:51.725Z,995.67
2024-03-02T04:44:51.677Z,995.68
2024-03-02T04:45:51.706Z,995.70
2024-03-02T04:46:51.671Z,995.71
2024-03-02T04:47:51.644Z,995.72
2024-03-02T04:48:51.689Z,995.69
2024-03-02T04:49:51.658Z,995.69
2024-03-02T04:50:51.616Z,995.70
2024-03-02T04:51:51.655Z,995.70
2024-03-02T04:52:51.599Z,995.69
2024-03-02T04:53:51.578Z,995.69
2024-03-02T04:54:51.657Z,995.72
2024-03-02T04:55:51.594Z,995.79
2024-03-02T04:56:51.904Z,995.80
2024-03-02T04:57:51.625Z,995.82
2024-03-02T04:58:51.524Z,995.77
2024-03-02T04:59:51.513Z,995.83
2024-03-02T05:00:51.658Z,995.77
2024-03-02T05:01:51.579Z,995.82
2024-03-02T05:02:51.485Z,995.77
2024-03-02T05:03:51.543Z,995.75
2024-03-02T05:04:51.456Z,995.73
2024-03-02T05:05:51.445Z,995.77
2024-03-02T05:06:52.060Z,995.73
2024-03-02T05:07:51.450Z,995.76
2024-03-02T05:08:51.413Z,995.73
2024-03-02T05:09:51.460Z,995.75
2024-03-02T05:10:51.413Z,995.78
2024-03-02T05:11:51.388Z,995.79
2024-03-02T05:12:51.415Z,995.76
2024-03-02T05:13:51.398Z,995.85
2024-03-02T05:14:51.351Z,995.83
2024-03-02T05:15:51.361Z,995.81
2024-03-02T05:16:51.345Z,995.83
2024-03-02T05:17:51.378Z,995.87
2024-03-02T05:18:51.332Z,995.81
2024-03-02T05:19:51.322Z,995.82
2024-03-02T05:20:51.294Z,995.85
2024-03-02T05:21:51.313Z,995.81
2024-03-02T05:22:51.265Z,995.83
2024-03-02T05:23:51.257Z,995.80
2024-03-02T05:24:51.274Z,995.82
2024-03-02T05:25:51.267Z,995.90
2024-03-02T05:26:51.236Z,995.87
2024-03-02T05:27:51.239Z,995.87
2024-03-02T05:28:51.190Z,995.96
2024-03-02T05:29:51.195Z,995.96
2024-03-02T05:30:51.197Z,995.95
2024-03-02T05:31:51.224Z,995.92
2024-03-02T05:32:51.149Z,995.96
2024-03-02T05:33:55.974Z,995.97
2024-03-02T05:34:51.138Z,995.93
2024-03-02T05:35:51.131Z,995.96
2024-03-02T05:36:51.204Z,995.97
2024-03-02T05:37:51.157Z,996.04
2024-03-02T05:38:51.084Z,996.00
2024-03-02T05:39:51.146Z,995.98
2024-03-02T05:40:51.068Z,996.05
2024-03-02T05:41:51.071Z,996.05
2024-03-02T05:42:51.143Z,996.07
2024-03-02T05:43:51.083Z,996.05
2024-03-02T05:44:51.026Z,996.10
2024-03-02T05:45:57.973Z,996.12
2024-03-02T05:46:51.095Z,996.08
2024-03-02T05:47:51.064Z,996.09
2024-03-02T05:48:51.075Z,996.10
2024-03-02T05:49:51.011Z,996.05
2024-03-02T05:50:50.975Z,996.08
2024-03-02T05:51:51.018Z,996.14
2024-03-02T05:52:50.942Z,996.18
2024-03-02T05:53:50.929Z,996.19
2024-03-02T05:54:51.015Z,996.23
2024-03-02T05:55:50.949Z,996.18
2024-03-02T05:56:50.907Z,996.26
2024-03-02T05:57:50.994Z,996.24
2024-03-02T05:58:50.869Z,996.21
2024-03-02T05:59:50.865Z,996.19
2024-03-02T06:00:50.945Z,996.18
2024-03-02T06:01:50.920Z,996.25
2024-03-02T06:02:50.847Z,996.24
2024-03-02T06:03:50.865Z,996.22
2024-03-02T06:04:50.820Z,996.19
2024-03-02T06:05:50.809Z,996.18
2024-03-02T06:06:51.106Z,996.18
2024-03-02T06:07:50.806Z,996.15
2024-03-02T06:08:50.771Z,996.12
2024-03-02T06:09:50.763Z,996.14
2024-03-02T06:10:50.805Z,996.13
2024-03-02T06:11:50.731Z,996.10
2024-03-02T06:12:50.796Z,996.13
2024-03-02T06:13:50.755Z,996.06
2024-03-02T06:14:50.700Z,996.05
2024-03-02T06:15:50.692Z,996.10
2024-03-02T06:16:50.761Z,996.13
2024-03-02T06:17:50.686Z,996.20
2024-03-02T06:18:50.668Z,996.21
2024-03-02T06:19:50.675Z,996.25
2024-03-02T06:20:50.636Z,996.34
2024-03-02T06:21:50.690Z,996.24
2024-03-02T06:22:50.614Z,996.27
2024-03-02T06:23:50.608Z,996.34
2024-03-02T06:24:50.622Z,996.34
2024-03-02T06:25:50.619Z,996.33
2024-03-02T06:26:50.635Z,996.33
2024-03-02T06:27:50.570Z,996.31
2024-03-02T06:28:50.552Z,996.35
2024-03-02T06:29:50.544Z,996.33
2024-03-02T06:30:50.597Z,996.32
2024-03-02T06:31:53.462Z,996.35
2024-03-02T06:32:50.569Z,996.36
2024-03-02T06:33:50.543Z,996.36
2024-03-02T06:34:50.490Z,996.36
2024-03-02T06:35:50.482Z,996.38
2024-03-02T06:36:50.529Z,996.33
2024-03-02T06:37:50.499Z,996.40
2024-03-02T06:38:50.447Z,996.38
2024-03-02T06:39:50.481Z,996.35
2024-03-02T06:40:50.424Z,996.35
2024-03-02T06:41:50.422Z,996.38
2024-03-02T06:42:50.449Z,996.32
2024-03-02T06:43:50.440Z,996.35
2024-03-02T06:44:50.379Z,996.42
2024-03-02T06:45:50.398Z,996.38
2024-03-02T06:46:50.401Z,996.41
2024-03-02T06:47:50.397Z,996.37
2024-03-02T06:48:50.364Z,996.31
2024-03-02T06:49:50.369Z,996.35
2024-03-02T06:50:50.334Z,996.37
2024-03-02T06:51:50.302Z,996.39
2024-03-02T06:52:50.290Z,996.35
2024-03-02T06:53:50.285Z,996.33
2024-03-02T06:54:50.403Z,996.35
2024-03-02T06:55:50.328Z,996.37
2024-03-02T06:56:50.295Z,996.38
2024-03-02T06:57:50.300Z,996.38
2024-03-02T06:58:50.228Z,996.39
2024-03-02T06:59:50.216Z,996.44
2024-03-02T07:00:50.261Z,996.43
2024-03-02T07:01:50.258Z,996.44
2024-03-02T07:02:50.180Z,996.46
2024-03-02T07:03:50.217Z,996.51
2024-03-02T07:04:50.230Z,996.49
2024-03-02T07:05:50.175Z,996.50
2024-03-02T07:06:50.261Z,996.51
2024-03-02T07:07:50.161Z,996.49
2024-03-02T07:08:50.137Z,996.53
2024-03-02T07:09:50.159Z,996.44
2024-03-02T07:10:50.146Z,996.55
2024-03-02T07:11:52.331Z,996.52
2024-03-02T07:12:50.105Z,996.56
2024-03-02T07:13:50.122Z,996.53
2024-03-02T07:14:50.058Z,996.56
2024-03-02T07:15:50.087Z,996.53
2024-03-02T07:16:50.069Z,996.56
2024-03-02T07:17:50.032Z,996.58
2024-03-02T07:18:50.051Z,996.61
2024-03-02T07:19:50.120Z,996.58
2024-03-02T07:20:49.991Z,996.65
2024-03-02T07:21:50.015Z,996.65
2024-03-02T07:22:49.981Z,996.68
2024-03-02T07:23:49.966Z,996.64
2024-03-02T07:24:49.975Z,996.70
2024-03-02T07:27:49.927Z,996.68
2024-03-02T07:28:49.907Z,996.65
2024-03-02T07:29:49.901Z,996.71
2024-03-02T07:30:49.929Z,996.61
2024-03-02T07:31:49.947Z,996.65
2024-03-02T07:32:49.883Z,996.63
2024-03-02T07:33:49.895Z,996.67
2024-03-02T07:34:49.842Z,996.64
2024-03-02T07:35:49.825Z,996.75
2024-03-02T07:36:49.840Z,996.73
2024-03-02T07:37:49.846Z,996.75
2024-03-02T07:38:49.796Z,996.79
2024-03-02T07:39:49.867Z,996.84
2024-03-02T07:40:49.772Z,996.75
2024-03-02T07:41:49.796Z,996.76
2024-03-02T07:42:49.837Z,996.79
2024-03-02T07:43:49.787Z,996.79
2024-03-02T07:44:49.733Z,996.76
2024-03-02T07:45:49.782Z,996.83
2024-03-02T07:46:49.718Z,996.81
2024-03-02T07:47:49.720Z,996.72
2024-03-02T07:48:49.743Z,996.82
2024-03-02T07:49:49.718Z,996.81
2024-03-02T07:50:49.694Z,996.86
2024-03-02T07:51:49.670Z,996.87
2024-03-02T07:52:49.643Z,996.85
2024-03-02T07:53:49.636Z,996.87
2024-03-02T07:54:49.657Z,996.82
2024-03-02T07:55:49.633Z,996.84
2024-03-02T07:56:49.594Z,996.86
2024-03-02T07:57:49.607Z,996.89
2024-03-02T07:58:49.576Z,996.91
2024-03-02T07:59:49.572Z,996.96
2024-03-02T08:00:51.721Z,996.96
2024-03-02T08:01:49.586Z,996.95
2024-03-02T08:02:49.540Z,996.95
2024-03-02T08:03:49.598Z,996.97
2024-03-02T08:04:49.520Z,996.97
2024-03-02T08:05:49.516Z,997.01
2024-03-02T08:06:49.535Z,996.99
2024-03-02T08:07:49.519Z,997.04
2024-03-02T08:08:49.468Z,997.01
2024-03-02T08:09:49.543Z,997.03
2024-03-02T08:10:49.497Z,997.07
2024-03-02T08:11:49.458Z,997.09
2024-03-02T08:12:49.443Z,997.10
2024-03-02T08:13:49.464Z,997.13
2024-03-02T08:14:49.408Z,997.12
2024-03-02T08:15:49.425Z,997.15
2024-03-02T08:16:49.440Z,997.17
2024-03-02T08:17:49.681Z,997.15
2024-03-02T08:18:49.456Z,997.15
2024-03-02T08:19:49.385Z,997.09
2024-03-02T08:20:49.354Z,997.10
2024-03-02T08:21:49.364Z,997.09
2024-03-02T08:22:49.358Z,997.10
2024-03-02T08:23:49.329Z,997.16
2024-03-02T08:24:49.294Z,997.11
2024-03-02T08:25:49.328Z,997.07
2024-03-02T08:26:49.272Z,997.07
2024-03-02T08:27:49.293Z,997.06
2024-03-02T08:28:49.256Z,997.04
2024-03-02T08:29:49.275Z,996.99
2024-03-02T08:30:49.280Z,996.98
2024-03-02T08:31:49.264Z,996.96
2024-03-02T08:32:49.299Z,997.01
2024-03-02T08:33:49.241Z,996.99
2024-03-02T08:34:49.195Z,997.01
2024-03-02T08:35:49.189Z,997.01
2024-03-02T08:36:49.201Z,997.05
2024-03-02T08:37:49.198Z,997.02
2024-03-02T08:38:49.146Z,997.00
2024-03-02T08:39:49.160Z,997.01
2024-03-02T08:40:49.142Z,997.03
2024-03-02T08:41:49.123Z,997.03
2024-03-02T08:42:49.131Z,997.02
2024-03-02T08:43:49.123Z,997.08
2024-03-02T08:44:49.086Z,997.05
2024-03-02T08:45:49.151Z,997.06
2024-03-02T08:46:49.152Z,997.06
2024-03-02T08:47:49.071Z,997.11
2024-03-02T08:48:49.090Z,997.13
2024-03-02T08:49:49.076Z,997.12
2024-03-02T08:50:49.037Z,997.12
2024-03-02T08:51:49.091Z,997.15
2024-03-02T08:52:48.994Z,997.16
2024-03-02T08:53:48.998Z,997.21
2024-03-02T08:54:49.018Z,997.18
2024-03-02T08:55:49.014Z,997.15
2024-03-02T08:56:48.976Z,997.15
2024-03-02T08:57:49.012Z,997.21
2024-03-02T08:58:48.931Z,997.22
2024-03-02T08:59:48.953Z,997.22
2024-03-02T09:00:49.012Z,997.24
2024-03-02T09:01:48.964Z,997.20
2024-03-02T09:02:48.900Z,997.19
2024-03-02T09:03:48.920Z,997.16
2024-03-02T09:04:48.994Z,997.16
2024-03-02T09:05:48.855Z,997.19
2024-03-02T09:06:48.862Z,997.15
2024-03-02T09:07:48.896Z,997.19
2024-03-02T09:08:48.821Z,997.20
2024-03-02T09:09:48.861Z,997.21
2024-03-02T09:10:48.818Z,997.19
2024-03-02T09:11:48.836Z,997.20
2024-03-02T09:12:48.818Z,997.23
2024-03-02T09:13:48.792Z,997.23
2024-03-02T09:14:48.757Z,997.21
2024-03-02T09:15:48.760Z,997.25
2024-03-02T09:16:48.730Z,997.24
2024-03-02T09:17:48.782Z,997.24
2024-03-02T09:18:48.782Z,997.24
2024-03-02T09:19:48.735Z,997.20
2024-03-02T09:20:48.691Z,997.23
2024-03-02T09:21:48.695Z,997.19
2024-03-02T09:22:48.660Z,997.26
2024-03-02T09:23:48.660Z,997.24
2024-03-02T09:24:48.713Z,997.28
2024-03-02T09:25:48.674Z,997.31
2024-03-02T09:26:48.621Z,997.29
2024-03-02T09:27:48.683Z,997.28
2024-03-02T09:28:48.600Z,997.29
2024-03-02T09:29:48.588Z,997.28
2024-03-02T09:30:48.617Z,997.27
2024-03-02T09:31:48.585Z,997.26
2024-03-02T09:32:50.525Z,997.28
2024-03-02T09:33:48.634Z,997.28
2024-03-02T09:34:48.563Z,997.27
2024-03-02T09:35:48.521Z,997.23
2024-03-02T09:36:48.535Z,997.30
2024-03-02T09:37:48.541Z,997.28
2024-03-02T09:38:48.504Z,997.17
2024-03-02T09:39:48.497Z,997.19
2024-03-02T09:40:48.467Z,997.21
2024-03-02T09:41:48.477Z,997.19
2024-03-02T09:42:48.503Z,997.20
2024-03-02T09:43:48.475Z,997.15
2024-03-02T09:44:48.510Z,997.13
2024-03-02T09:45:48.415Z,997.23
2024-03-02T09:46:48.528Z,997.17
2024-03-02T09:47:48.672Z,997.17
2024-03-02T09:48:48.496Z,997.15
2024-03-02T09:49:48.540Z,997.15
2024-03-02T09:50:48.524Z,997.11
2024-03-02T09:51:48.387Z,997.11
2024-03-02T09:52:48.357Z,997.14
2024-03-02T09:53:48.322Z,997.16
2024-03-02T09:54:48.405Z,997.09
2024-03-02T09:55:48.352Z,997.01
2024-03-02T09:56:48.296Z,997.03
2024-03-02T09:57:48.293Z,996.96
2024-03-02T09:58:48.276Z,996.97
2024-03-02T09:59:48.261Z,996.99
2024-03-02T10:00:48.413Z,997.01
2024-03-02T10:01:48.291Z,996.98
2024-03-02T10:02:48.231Z,997.03
2024-03-02T10:03:48.270Z,997.02
2024-03-02T10:04:48.247Z,997.05
2024-03-02T10:05:48.213Z,997.06
2024-03-02T10:06:48.240Z,997.09
2024-03-02T10:07:48.214Z,997.11
2024-03-02T10:08:48.171Z,997.01
2024-03-02T10:09:48.215Z,997.07
2024-03-02T10:10:48.244Z,997.09
2024-03-02T10:11:48.131Z,997.04
2024-03-02T10:12:48.143Z,997.02
2024-03-02T10:13:48.146Z,997.09
2024-03-02T10:14:48.251Z,997.10
2024-03-02T10:15:48.135Z,997.10
2024-03-02T10:16:48.120Z,997.09
2024-03-02T10:17:48.081Z,997.06
2024-03-02T10:18:48.105Z,997.15
2024-03-02T10:19:48.130Z,997.04
2024-03-02T10:20:48.120Z,997.09
2024-03-02T10:21:48.086Z,997.11
2024-03-02T10:22:48.049Z,997.04
2024-03-02T10:23:48.029Z,997.11
2024-03-02T10:24:50.088Z,997.01
2024-03-02T10:25:54.942Z,997.02
2024-03-02T10:26:47.984Z,997.05
2024-03-02T10:27:47.969Z,997.01
2024-03-02T10:28:47.949Z,997.07
2024-03-02T10:29:47.951Z,997.04
2024-03-02T10:30:47.938Z,997.08
2024-03-02T10:31:47.966Z,997.01
2024-03-02T10:32:47.934Z,997.02
2024-03-02T10:33:47.907Z,997.01
2024-03-02T10:34:47.882Z,996.92
2024-03-02T10:35:47.871Z,996.98
2024-03-02T10:36:47.888Z,997.00
2024-03-02T10:37:47.882Z,996.90
2024-03-02T10:38:47.840Z,996.84
2024-03-02T10:39:47.969Z,996.89
2024-03-02T10:40:47.814Z,996.85
2024-03-02T10:41:47.808Z,996.80
2024-03-02T10:42:48.045Z,996.80
2024-03-02T10:43:47.821Z,996.81
2024-03-02T10:44:47.767Z,996.80
2024-03-02T10:45:47.769Z,996.82
2024-03-02T10:46:47.748Z,996.74
2024-03-02T10:47:47.793Z,996.76
2024-03-02T10:48:47.769Z,996.77
2024-03-02T10:49:47.735Z,996.78
2024-03-02T10:50:47.714Z,996.84
2024-03-02T10:51:47.733Z,996.76
2024-03-02T10:52:47.695Z,996.78
2024-03-02T10:53:47.671Z,996.76
2024-03-02T10:54:47.727Z,996.78
2024-03-02T10:55:47.697Z,996.81
2024-03-02T10:56:47.652Z,996.85
2024-03-02T10:57:47.674Z,996.85
2024-03-02T10:58:47.709Z,996.80
2024-03-02T10:59:47.607Z,996.77
2024-03-02T11:00:47.747Z,996.84
2024-03-02T11:01:47.668Z,996.78
2024-03-02T11:02:47.599Z,996.78
2024-03-02T11:03:47.589Z,996.78
2024-03-02T11:04:47.567Z,996.74
2024-03-02T11:05:47.556Z,996.67
2024-03-02T11:06:47.632Z,996.68
2024-03-02T11:07:47.549Z,996.64
2024-03-02T11:08:47.505Z,996.68
2024-03-02T11:09:47.523Z,996.68
2024-03-02T11:10:47.560Z,996.64
2024-03-02T11:11:47.480Z,996.63
2024-03-02T11:12:47.501Z,996.60
2024-03-02T11:13:47.485Z,996.61
2024-03-02T11:14:47.504Z,996.65
2024-03-02T11:15:47.446Z,996.63
2024-03-02T11:16:47.426Z,996.65
2024-03-02T11:17:47.406Z,996.58
2024-03-02T11:18:47.510Z,996.57
2024-03-02T11:19:47.448Z,996.57
2024-03-02T11:20:47.416Z,996.55
2024-03-02T11:21:47.387Z,996.52
2024-03-02T11:22:47.357Z,996.56
2024-03-02T11:23:47.339Z,996.55
2024-03-02T11:24:47.352Z,996.59
2024-03-02T11:25:47.350Z,996.57
2024-03-02T11:26:47.312Z,996.52
2024-03-02T11:27:47.529Z,996.63
2024-03-02T11:28:47.290Z,996.54
2024-03-02T11:29:47.271Z,996.50
2024-03-02T11:30:47.302Z,996.53
2024-03-02T11:31:47.296Z,996.53
2024-03-02T11:32:47.302Z,996.56
2024-03-02T11:33:47.241Z,996.55
2024-03-02T11:34:47.226Z,996.52
2024-03-02T11:35:47.216Z,996.43
2024-03-02T11:36:47.324Z,996.47
2024-03-02T11:37:47.228Z,996.50
2024-03-02T11:38:47.288Z,996.49
2024-03-02T11:39:47.215Z,996.49
2024-03-02T11:40:47.181Z,996.47
2024-03-02T11:41:49.400Z,996.41
2024-03-02T11:42:47.183Z,996.45
2024-03-02T11:43:47.274Z,996.40
2024-03-02T11:44:47.111Z,996.44
2024-03-02T11:45:47.127Z,996.48
2024-03-02T11:46:47.091Z,996.41
2024-03-02T11:47:47.103Z,996.36
2024-03-02T11:48:47.113Z,996.45
2024-03-02T11:49:47.138Z,996.39
2024-03-02T11:50:47.175Z,996.41
2024-03-02T11:51:47.056Z,996.38
2024-03-02T11:52:47.024Z,996.35
2024-03-02T11:53:47.031Z,996.34
2024-03-02T11:54:47.008Z,996.35
2024-03-02T11:55:47.021Z,996.33
2024-03-02T11:56:46.981Z,996.32
2024-03-02T11:57:47.148Z,996.39
2024-03-02T11:58:47.977Z,996.33
2024-03-02T11:59:46.962Z,996.29
2024-03-02T12:00:53.151Z,996.32
2024-03-02T12:01:46.954Z,996.25
2024-03-02T12:02:46.959Z,996.30
2024-03-02T12:03:46.936Z,996.25
2024-03-02T12:04:46.942Z,996.20
2024-03-02T12:05:46.884Z,996.17
2024-03-02T12:06:46.919Z,996.15
2024-03-02T12:07:46.861Z,996.19
2024-03-02T12:08:46.854Z,996.15
2024-03-02T12:09:46.865Z,996.13
2024-03-02T12:10:46.859Z,996.18
2024-03-02T12:11:46.854Z,996.17
2024-03-02T12:12:46.849Z,996.13
2024-03-02T12:13:46.795Z,996.12
2024-03-02T12:14:46.844Z,996.10
2024-03-02T12:15:46.808Z,996.10
2024-03-02T12:16:46.813Z,996.04
2024-03-02T12:17:46.884Z,996.08
2024-03-02T12:18:46.920Z,996.10
2024-03-02T12:19:46.732Z,996.06
2024-03-02T12:20:46.914Z,996.06
2024-03-02T12:21:46.732Z,996.05
2024-03-02T12:22:46.713Z,996.03
2024-03-02T12:23:46.692Z,996.00
2024-03-02T12:24:46.902Z,995.97
2024-03-02T12:25:46.731Z,995.94
2024-03-02T12:26:46.661Z,995.96
2024-03-02T12:27:46.761Z,995.92
2024-03-02T12:28:46.656Z,995.98
2024-03-02T12:29:46.752Z,995.94
2024-03-02T12:30:46.749Z,995.89